Time;durP1;ratioP1;P1;durP2;ratioP2;P2;SDS_P1;SDS_P2;PMS_P1;PMS_P2;Temp;Humidity;BMP_temperature;BMP_pressure;BME280_temperature;BME280_humidity;BME280_pressure;Samples;Min_cycle;Max_cycle;Signal;HPM_P1;HPM_P2
2023/08/22 00:01:37;;;;;;;;;;;;;;;28.61;56.25;101064.75;6162517;23;19913;-80
2023/08/22 00:04:29;;;;;;;;;;;;;;;28.66;55.74;101072.66;6155020;23;19912;-80
2023/08/22 00:07:22;;;;;;;;;;;;;;;28.63;56.11;101064.34;6183841;23;19917;-80
2023/08/22 00:10:14;;;;;;;;;;;;;;;28.61;55.79;101058.38;6162476;23;19912;-79
2023/08/22 00:13:06;;;;;;;;;;;;;;;28.64;55.54;101055.53;6160722;23;19912;-80
2023/08/22 00:16:04;;;;;;;;;;;;;;;28.63;56.11;101053.94;6151009;23;19916;-80
2023/08/22 00:18:56;;;;;;;;;;;;;;;28.55;56.09;101046.88;6171246;23;19913;-79
2023/08/22 00:21:48;;;;;;;;;;;;;;;28.57;55.56;101041.66;6171452;23;19912;-78
2023/08/22 00:24:40;;;;;;;;;;;;;;;28.58;55.47;101046.03;6171549;23;19912;-80
2023/08/22 00:27:33;;;;;;;;;;;;;;;28.55;55.76;101044.09;6170872;23;19916;-80
2023/08/22 00:30:25;;;;;;;;;;;;;;;28.58;55.71;101037.66;6192726;23;19912;-80
2023/08/22 00:33:17;;;;;;;;;;;;;;;28.54;55.50;101039.72;6171472;23;19916;-79
2023/08/22 00:36:09;;;;;;;;;;;;;;;28.52;55.76;101041.38;6193670;23;20346;-80
2023/08/22 00:39:02;;;;;;;;;;;;;;;28.48;55.78;101047.03;6171120;23;19912;-80
2023/08/22 00:41:54;;;;;;;;;;;;;;;28.37;56.24;101038.06;6171371;23;19912;-80
2023/08/22 00:44:46;;;;;;;;;;;;;;;28.26;56.30;101034.69;6191523;23;19912;-81
2023/08/22 00:47:35;;;;;;;;;;;;;;;28.22;56.58;101039.56;6193575;23;19920;-80
2023/08/22 00:50:27;;;;;;;;;;;;;;;28.21;56.28;101037.97;6171241;23;19916;-80
2023/08/22 00:53:19;;;;;;;;;;;;;;;28.20;56.24;101042.78;6191530;23;19916;-80
2023/08/22 00:56:11;;;;;;;;;;;;;;;28.19;56.26;101030.00;6191829;23;19916;-80
2023/08/22 00:59:03;;;;;;;;;;;;;;;28.24;56.26;101032.28;6172028;23;19912;-81
2023/08/22 01:01:55;;;;;;;;;;;;;;;28.23;56.11;101035.53;6193837;23;19912;-80
2023/08/22 01:04:47;;;;;;;;;;;;;;;28.07;56.99;101028.59;6193534;23;19916;-80
2023/08/22 01:07:57;;;;;;;;;;;;;;;28.16;56.34;101024.47;6172442;23;19920;-80
2023/08/22 01:10:51;;;;;;;;;;;;;;;28.21;56.33;101023.97;6173023;23;19912;-80
2023/08/22 01:13:44;;;;;;;;;;;;;;;28.15;56.36;101026.47;6193341;23;19912;-80
2023/08/22 01:16:36;;;;;;;;;;;;;;;28.24;56.10;101025.94;6164376;23;19917;-80
2023/08/22 01:19:28;;;;;;;;;;;;;;;28.23;56.38;101018.75;6162899;23;19916;-80
2023/08/22 01:22:24;;;;;;;;;;;;;;;28.23;55.85;101019.56;6164149;23;19920;-80
2023/08/22 01:25:16;;;;;;;;;;;;;;;28.17;56.10;101017.66;6164411;23;20329;-80
2023/08/22 01:28:12;;;;;;;;;;;;;;;28.14;56.14;101015.75;6164933;23;19917;-80
2023/08/22 01:31:07;;;;;;;;;;;;;;;27.99;56.97;101010.34;6165104;23;20252;-80
2023/08/22 01:34:08;;;;;;;;;;;;;;;28.01;56.55;101012.75;6163951;23;19912;-81
2023/08/22 01:37:00;;;;;;;;;;;;;;;28.07;55.91;101011.81;6164241;23;19913;-80
2023/08/22 01:39:55;;;;;;;;;;;;;;;28.04;56.05;101011.88;6163795;23;19912;-80
2023/08/22 01:42:47;;;;;;;;;;;;;;;28.13;55.92;101008.56;6163861;23;19912;-80
2023/08/22 01:45:40;;;;;;;;;;;;;;;28.13;55.49;101003.75;6164762;23;20001;-79
2023/08/22 01:48:27;;;;;;;;;;;;;;;27.96;56.08;101005.63;6142768;23;19913;-80
2023/08/22 01:51:16;;;;;;;;;;;;;;;27.88;56.41;101003.41;6185056;23;19912;-80
2023/08/22 01:54:06;;;;;;;;;;;;;;;27.89;56.80;101000.16;6143116;23;19917;-80
2023/08/22 01:56:57;;;;;;;;;;;;;;;27.90;56.68;100995.38;6164650;23;19912;-80
2023/08/22 01:59:49;;;;;;;;;;;;;;;27.89;56.53;101005.75;6164174;23;20284;-80
2023/08/22 02:02:41;;;;;;;;;;;;;;;27.85;56.68;100998.66;6163457;23;20256;-80
2023/08/22 02:05:33;;;;;;;;;;;;;;;27.72;57.29;101004.06;6165386;23;19917;-80
2023/08/22 02:08:25;;;;;;;;;;;;;;;27.82;56.41;101005.91;6162997;23;19912;-80
2023/08/22 02:11:18;;;;;;;;;;;;;;;27.78;56.53;100999.59;6164624;23;19917;-80
2023/08/22 02:14:11;;;;;;;;;;;;;;;27.82;56.63;101000.31;6184985;23;19955;-79
2023/08/22 02:17:03;;;;;;;;;;;;;;;27.78;56.55;100996.00;6163160;23;19912;-80
2023/08/22 02:19:53;;;;;;;;;;;;;;;27.77;56.68;100997.19;6143217;23;20378;-80
2023/08/22 02:22:44;;;;;;;;;;;;;;;27.68;57.12;100994.19;6163627;23;19912;-80
2023/08/22 02:25:35;;;;;;;;;;;;;;;27.61;57.60;100990.28;6164013;23;19917;-80
2023/08/22 02:28:26;;;;;;;;;;;;;;;27.60;57.69;100993.50;6162858;23;19913;-80
2023/08/22 02:31:18;;;;;;;;;;;;;;;27.61;57.81;100992.28;6183809;23;20279;-80
2023/08/22 02:34:11;;;;;;;;;;;;;;;27.46;58.11;100983.31;6143492;23;20260;-80
2023/08/22 02:37:03;;;;;;;;;;;;;;;27.43;58.53;100983.38;6163320;23;19916;-80
2023/08/22 02:39:55;;;;;;;;;;;;;;;27.38;58.76;100981.84;6142789;23;19913;-80
2023/08/22 02:42:47;;;;;;;;;;;;;;;27.37;58.63;100980.28;6163570;23;20252;-80
2023/08/22 02:45:37;;;;;;;;;;;;;;;27.27;59.14;100986.03;6164350;23;19917;-80
2023/08/22 02:48:24;;;;;;;;;;;;;;;27.41;58.63;100980.22;6141931;23;19913;-80
2023/08/22 02:51:16;;;;;;;;;;;;;;;27.37;58.85;100971.13;6163076;23;19967;-81
2023/08/22 02:54:06;;;;;;;;;;;;;;;27.34;58.44;100969.94;6163443;23;19920;-80
2023/08/22 02:56:55;;;;;;;;;;;;;;;27.28;58.57;100970.88;6163452;23;19912;-80
2023/08/22 02:59:47;;;;;;;;;;;;;;;27.26;58.67;100965.69;6163266;23;19913;-80
2023/08/22 03:02:36;;;;;;;;;;;;;;;27.19;58.54;100958.22;6162990;23;20332;-80
2023/08/22 03:05:29;;;;;;;;;;;;;;;27.21;58.60;100966.16;6164077;23;19916;-80
2023/08/22 03:08:21;;;;;;;;;;;;;;;27.20;58.43;100968.16;6183932;23;19912;-81
2023/08/22 03:11:13;;;;;;;;;;;;;;;27.31;57.88;100964.41;6184525;23;19920;-80
2023/08/22 03:14:05;;;;;;;;;;;;;;;27.22;58.09;100962.19;6142049;23;20340;-80
2023/08/22 03:16:56;;;;;;;;;;;;;;;27.01;58.34;100974.44;6163730;23;20248;-79
2023/08/22 03:19:48;;;;;;;;;;;;;;;27.05;58.66;100966.81;6142429;23;19921;-79
2023/08/22 03:22:40;;;;;;;;;;;;;;;26.53;60.31;100966.31;6162603;23;19917;-79
2023/08/22 03:25:32;;;;;;;;;;;;;;;26.27;61.56;100965.03;6163158;23;19916;-80
2023/08/22 03:28:24;;;;;;;;;;;;;;;26.15;62.44;100973.13;6163193;23;19916;-80
2023/08/22 03:31:16;;;;;;;;;;;;;;;26.49;61.36;100967.56;6143079;23;19916;-80
2023/08/22 03:34:08;;;;;;;;;;;;;;;26.68;60.44;100966.91;6162244;23;19917;-80
2023/08/22 03:37:00;;;;;;;;;;;;;;;26.56;60.61;100970.28;6163713;23;20332;-79
2023/08/22 03:39:52;;;;;;;;;;;;;;;26.46;60.68;100957.25;6163438;23;19913;-79
2023/08/22 03:42:45;;;;;;;;;;;;;;;26.72;59.68;100967.63;6142935;23;19916;-80
2023/08/22 03:45:36;;;;;;;;;;;;;;;26.79;58.93;100959.19;6162972;23;19917;-80
2023/08/22 03:48:28;;;;;;;;;;;;;;;26.57;59.57;100967.03;6183984;23;19917;-80
2023/08/22 03:51:20;;;;;;;;;;;;;;;26.75;59.20;100961.22;6162982;23;19912;-79
2023/08/22 03:54:12;;;;;;;;;;;;;;;26.84;58.70;100953.13;6184224;23;20425;-80
2023/08/22 03:57:04;;;;;;;;;;;;;;;26.90;58.23;100959.06;6163481;23;19913;-80
2023/08/22 03:59:56;;;;;;;;;;;;;;;26.92;58.12;100965.78;6142189;23;20252;-80
2023/08/22 04:02:47;;;;;;;;;;;;;;;26.81;57.69;100965.94;6163243;23;19913;-80
2023/08/22 04:05:43;;;;;;;;;;;;;;;26.60;58.30;100971.00;6183739;23;19917;-80
2023/08/22 04:08:35;;;;;;;;;;;;;;;26.67;57.80;100970.91;6162795;23;19920;-80
2023/08/22 04:11:24;;;;;;;;;;;;;;;26.75;57.63;100972.41;6163661;23;19912;-80
2023/08/22 04:14:16;;;;;;;;;;;;;;;26.81;57.31;100970.72;6163917;23;19912;-81
2023/08/22 04:17:08;;;;;;;;;;;;;;;26.85;57.10;100968.66;6151375;23;19920;-79
2023/08/22 04:20:00;;;;;;;;;;;;;;;26.83;57.18;100963.50;6182366;23;20359;-80
2023/08/22 04:22:49;;;;;;;;;;;;;;;26.83;57.17;100973.88;6183241;23;19912;-81
2023/08/22 04:25:41;;;;;;;;;;;;;;;26.76;57.20;100982.34;6181079;23;20264;-80
2023/08/22 04:28:32;;;;;;;;;;;;;;;26.16;59.26;100978.25;6154918;23;20698;-86
2023/08/22 04:31:25;;;;;;;;;;;;;;;26.20;59.96;100983.81;6166142;23;20471;-86
2023/08/22 04:34:14;;;;;;;;;;;;;;;26.10;59.24;100982.72;6163275;23;20244;-84
2023/08/22 04:37:07;;;;;;;;;;;;;;;25.75;60.55;100985.88;6165354;23;19913;-84
2023/08/22 04:40:00;;;;;;;;;;;;;;;25.86;61.32;100978.19;6164043;23;19913;-84
2023/08/22 04:43:01;;;;;;;;;;;;;;;26.00;60.81;100989.22;6165674;23;19917;-84
2023/08/22 04:45:52;;;;;;;;;;;;;;;26.13;59.94;100986.66;6140638;23;19912;-85
2023/08/22 04:48:45;;;;;;;;;;;;;;;25.84;59.85;100991.75;6162398;23;19916;-88
2023/08/22 04:51:37;;;;;;;;;;;;;;;25.58;60.39;100990.38;6162729;23;19913;-87
2023/08/22 04:54:29;;;;;;;;;;;;;;;25.67;60.52;100992.69;6165024;23;19913;-89
2023/08/22 04:57:21;;;;;;;;;;;;;;;25.58;60.83;101001.53;6166444;23;19912;-88
2023/08/22 05:00:13;;;;;;;;;;;;;;;25.66;60.82;100991.09;6147088;23;20248;-88
2023/08/22 05:03:05;;;;;;;;;;;;;;;25.51;60.89;101002.34;6166805;23;19912;-87
2023/08/22 05:05:53;;;;;;;;;;;;;;;25.63;60.80;101003.09;6161075;23;20025;-86
2023/08/22 05:08:45;;;;;;;;;;;;;;;25.74;60.31;100998.22;6142017;23;20257;-86
2023/08/22 05:11:37;;;;;;;;;;;;;;;25.78;60.66;101007.31;6162624;23;19916;-88
2023/08/22 05:14:27;;;;;;;;;;;;;;;25.72;60.55;101006.97;6141752;23;19917;-85
2023/08/22 05:17:19;;;;;;;;;;;;;;;25.76;60.25;101004.16;6162708;23;19913;-88
2023/08/22 05:20:13;;;;;;;;;;;;;;;26.04;59.71;101012.25;6148817;23;19913;-87
2023/08/22 05:23:02;;;;;;;;;;;;;;;25.95;60.01;101006.38;6170430;23;19912;-85
2023/08/22 05:25:54;;;;;;;;;;;;;;;25.99;59.29;101004.34;6190414;23;19913;-90
2023/08/22 05:28:46;;;;;;;;;;;;;;;26.12;59.02;101005.38;6170405;23;19913;-89
2023/08/22 05:31:38;;;;;;;;;;;;;;;26.22;59.32;101018.47;6167429;23;19916;-88
2023/08/22 05:34:30;;;;;;;;;;;;;;;26.46;58.55;101016.63;6168980;23;20286;-89
2023/08/22 05:37:21;;;;;;;;;;;;;;;26.55;57.95;101018.91;6147669;23;19912;-89
2023/08/22 05:40:13;;;;;;;;;;;;;;;26.77;57.24;101020.19;6167887;23;19913;-88
2023/08/22 05:43:05;;;;;;;;;;;;;;;26.79;57.22;101015.78;6146673;23;20268;-87
2023/08/22 05:45:55;;;;;;;;;;;;;;;27.01;56.72;101024.72;6190632;23;19921;-88
2023/08/22 05:48:47;;;;;;;;;;;;;;;27.34;56.17;101025.00;6167727;23;20005;-88
2023/08/22 05:51:40;;;;;;;;;;;;;;;27.43;55.89;101025.28;6168701;23;19912;-88
2023/08/22 05:54:32;;;;;;;;;;;;;;;27.53;56.18;101025.13;6157697;23;19916;-84
2023/08/22 05:57:22;;;;;;;;;;;;;;;27.68;55.62;101034.09;6143959;23;19912;-84
2023/08/22 06:00:13;;;;;;;;;;;;;;;27.80;55.06;101030.69;6144591;23;19916;-83
2023/08/22 06:03:14;;;;;;;;;;;;;;;27.92;54.69;101032.88;6164736;23;20399;-83
2023/08/22 06:06:04;;;;;;;;;;;;;;;28.04;54.71;101035.03;6143730;23;19912;-83
2023/08/22 06:08:53;;;;;;;;;;;;;;;28.14;54.43;101032.53;6184986;23;19913;-84
2023/08/22 06:11:46;;;;;;;;;;;;;;;28.22;54.85;101037.56;6164760;23;20333;-85
2023/08/22 06:14:38;;;;;;;;;;;;;;;28.30;53.35;101041.78;6142658;23;19913;-83
2023/08/22 06:17:27;;;;;;;;;;;;;;;28.41;53.76;101041.56;6151088;23;19912;-86
2023/08/22 06:20:19;;;;;;;;;;;;;;;28.45;54.43;101037.50;6193602;23;19916;-84
2023/08/22 06:23:11;;;;;;;;;;;;;;;28.52;54.60;101046.97;6173024;23;19912;-83
2023/08/22 06:26:03;;;;;;;;;;;;;;;28.64;52.09;101044.31;6193205;23;19912;-82
2023/08/22 06:28:55;;;;;;;;;;;;;;;28.67;52.61;101046.25;6193453;23;19912;-82
2023/08/22 06:31:46;;;;;;;;;;;;;;;28.72;53.17;101056.97;6192739;23;19920;-82
2023/08/22 06:34:38;;;;;;;;;;;;;;;28.80;51.26;101052.78;6173485;23;20440;-85
2023/08/22 06:37:30;;;;;;;;;;;;;;;28.87;52.87;101057.47;6172229;23;19912;-84
2023/08/22 06:40:22;;;;;;;;;;;;;;;28.91;50.05;101058.97;6172551;23;19912;-83
2023/08/22 06:43:13;;;;;;;;;;;;;;;29.01;49.36;101064.75;6172724;23;19912;-85
2023/08/22 06:46:07;;;;;;;;;;;;;;;29.15;49.21;101064.47;6173561;23;19912;-83
2023/08/22 06:48:58;;;;;;;;;;;;;;;29.17;50.41;101064.81;6192127;23;19916;-83
2023/08/22 06:51:49;;;;;;;;;;;;;;;29.30;50.13;101069.31;6171637;23;20347;-83
2023/08/22 06:54:39;;;;;;;;;;;;;;;29.32;49.52;101066.09;6193802;23;19912;-83
2023/08/22 06:57:31;;;;;;;;;;;;;;;29.34;49.40;101060.84;6193199;23;19912;-84
2023/08/22 07:00:22;;;;;;;;;;;;;;;29.48;48.44;101062.53;6172611;23;19912;-85
2023/08/22 07:03:14;;;;;;;;;;;;;;;29.41;51.13;101057.88;6169232;23;19912;-86
2023/08/22 07:06:06;;;;;;;;;;;;;;;29.43;50.54;101065.84;6193792;23;19912;-84
2023/08/22 07:08:53;;;;;;;;;;;;;;;29.48;50.85;101063.31;6193244;23;19912;-85
2023/08/22 07:11:43;;;;;;;;;;;;;;;29.45;51.21;101060.63;6194904;23;19912;-84
2023/08/22 07:14:35;;;;;;;;;;;;;;;29.47;50.09;101061.75;6186198;23;20263;-84
2023/08/22 07:17:27;;;;;;;;;;;;;;;29.56;50.29;101066.75;6184535;23;19912;-84
2023/08/22 07:20:19;;;;;;;;;;;;;;;29.68;50.69;101066.84;6162705;23;19917;-83
2023/08/22 07:23:09;;;;;;;;;;;;;;;29.66;50.66;101062.91;6164001;23;19912;-84
2023/08/22 07:26:01;;;;;;;;;;;;;;;29.70;51.35;101072.00;6143597;23;19916;-85
2023/08/22 07:28:51;;;;;;;;;;;;;;;29.75;50.69;101074.28;6165121;23;19913;-88
2023/08/22 07:31:42;;;;;;;;;;;;;;;29.72;50.78;101064.72;6165974;23;19912;-89
2023/08/22 07:34:34;;;;;;;;;;;;;;;29.75;50.31;101066.66;6157389;23;19912;-89
2023/08/22 07:37:26;;;;;;;;;;;;;;;29.80;50.29;101067.38;6146883;23;19912;-89
2023/08/22 07:40:19;;;;;;;;;;;;;;;29.84;50.47;101068.06;6167920;23;19916;-87
2023/08/22 07:43:11;;;;;;;;;;;;;;;29.87;50.53;101072.81;6167327;23;19913;-90
2023/08/22 07:46:02;;;;;;;;;;;;;;;29.94;50.48;101083.84;6146534;23;19916;-86
2023/08/22 07:48:55;;;;;;;;;;;;;;;29.99;50.44;101080.53;6146829;23;19916;-92
2023/08/22 07:51:47;;;;;;;;;;;;;;;30.04;50.28;101085.59;6169347;23;19912;-88
2023/08/22 07:54:39;;;;;;;;;;;;;;;30.09;50.37;101079.47;6148782;23;19916;-88
2023/08/22 07:57:31;;;;;;;;;;;;;;;30.14;50.18;101081.72;6149532;23;19912;-90
2023/08/22 08:00:24;;;;;;;;;;;;;;;30.20;50.07;101068.75;6145982;23;19913;-86
2023/08/22 08:03:15;;;;;;;;;;;;;;;30.27;50.18;101076.19;6165680;23;19912;-88
2023/08/22 08:06:07;;;;;;;;;;;;;;;30.31;50.06;101074.88;6165658;23;19920;-83
2023/08/22 08:08:56;;;;;;;;;;;;;;;30.38;49.79;101074.66;6164681;23;19920;-86
2023/08/22 08:11:48;;;;;;;;;;;;;;;30.44;49.73;101074.91;6163351;23;19920;-85
2023/08/22 08:14:40;;;;;;;;;;;;;;;30.49;49.63;101075.19;6164595;23;19913;-85
2023/08/22 08:17:30;;;;;;;;;;;;;;;30.57;49.61;101076.59;6154962;23;19913;-84
2023/08/22 08:20:22;;;;;;;;;;;;;;;30.62;49.44;101078.06;6144362;23;19917;-85
2023/08/22 08:23:14;;;;;;;;;;;;;;;30.70;49.30;101078.63;6185210;23;19912;-83
2023/08/22 08:26:06;;;;;;;;;;;;;;;30.75;49.22;101072.47;6162633;23;19921;-84
2023/08/22 08:28:57;;;;;;;;;;;;;;;30.81;49.26;101077.09;6141427;23;19917;-84
2023/08/22 08:31:47;;;;;;;;;;;;;;;30.85;49.14;101074.97;6185271;23;19917;-85
2023/08/22 08:34:39;;;;;;;;;;;;;;;30.92;48.72;101083.19;6184354;23;20295;-84
2023/08/22 08:37:30;;;;;;;;;;;;;;;30.98;48.85;101078.56;6165040;23;19913;-84
2023/08/22 08:40:22;;;;;;;;;;;;;;;31.06;47.82;101072.78;6163811;23;19916;-85
2023/08/22 08:43:14;;;;;;;;;;;;;;;31.14;47.71;101074.94;6144175;23;19912;-84
2023/08/22 08:46:06;;;;;;;;;;;;;;;31.22;47.54;101079.09;6142947;23;19916;-84
2023/08/22 08:48:58;;;;;;;;;;;;;;;31.29;47.56;101070.44;6160982;23;19916;-84
2023/08/22 08:51:48;;;;;;;;;;;;;;;31.35;47.33;101071.47;6159417;23;19913;-83
2023/08/22 08:54:37;;;;;;;;;;;;;;;31.43;46.73;101075.63;6162847;23;19913;-85
2023/08/22 08:57:29;;;;;;;;;;;;;;;31.47;47.12;101074.72;6164095;23;19916;-86
2023/08/22 09:00:21;;;;;;;;;;;;;;;31.51;47.50;101075.38;6142696;23;19913;-87
2023/08/22 09:03:14;;;;;;;;;;;;;;;31.55;47.09;101078.88;6162902;23;19913;-86
2023/08/22 09:06:01;;;;;;;;;;;;;;;31.62;46.80;101079.47;6162821;23;19917;-85
2023/08/22 09:09:08;;;;;;;;;;;;;;;31.72;46.74;101074.72;6142730;23;19913;-85
2023/08/22 09:11:57;;;;;;;;;;;;;;;31.81;46.64;101067.19;6163043;23;19913;-84
2023/08/22 09:14:47;;;;;;;;;;;;;;;31.87;46.31;101061.75;6143808;23;19917;-84
2023/08/22 09:17:43;;;;;;;;;;;;;;;31.93;46.31;101070.41;6170839;23;20244;-84
2023/08/22 09:20:32;;;;;;;;;;;;;;;31.99;46.20;101058.16;6193321;23;19912;-84
2023/08/22 09:23:28;;;;;;;;;;;;;;;32.11;46.00;101068.59;6184660;23;19916;-84
2023/08/22 09:26:22;;;;;;;;;;;;;;;32.21;45.53;101061.00;6175931;23;19917;-84
2023/08/22 09:29:11;;;;;;;;;;;;;;;32.29;45.27;101058.75;6196213;23;19916;-87
2023/08/22 09:32:01;;;;;;;;;;;;;;;32.40;45.27;101050.72;6174930;23;20336;-87
2023/08/22 09:35:04;;;;;;;;;;;;;;;32.41;45.39;101052.28;6173163;23;19912;-86
2023/08/22 09:38:04;;;;;;;;;;;;;;;32.45;45.10;101047.31;6197001;23;19912;-85
2023/08/22 09:40:54;;;;;;;;;;;;;;;32.50;45.39;101050.31;6174063;23;19916;-85
2023/08/22 09:43:46;;;;;;;;;;;;;;;32.64;44.63;101046.22;6196380;23;19912;-88
2023/08/22 09:46:45;;;;;;;;;;;;;;;32.67;44.99;101050.91;6195903;23;19912;-87
2023/08/22 09:49:38;;;;;;;;;;;;;;;32.73;44.22;101051.91;6176167;23;19912;-86
2023/08/22 09:52:35;;;;;;;;;;;;;;;32.77;43.82;101046.13;6195549;23;20340;-88
2023/08/22 09:55:24;;;;;;;;;;;;;;;32.85;43.72;101048.22;6175336;23;19916;-88
2023/08/22 09:58:17;;;;;;;;;;;;;;;32.94;43.09;101041.84;6175025;23;19912;-88
2023/08/22 10:01:09;;;;;;;;;;;;;;;33.01;42.96;101036.72;6174211;23;19912;-89
2023/08/22 10:04:03;;;;;;;;;;;;;;;33.10;43.22;101030.34;6174162;23;20336;-87
2023/08/22 10:06:55;;;;;;;;;;;;;;;33.18;42.65;101030.88;6151939;23;20255;-86
2023/08/22 10:09:42;;;;;;;;;;;;;;;33.20;42.76;101029.16;6195508;23;19912;-88
2023/08/22 10:12:35;;;;;;;;;;;;;;;33.23;43.25;101028.22;6154480;23;19912;-87
2023/08/22 10:15:24;;;;;;;;;;;;;;;33.33;42.43;101029.84;6198853;23;20252;-88
2023/08/22 10:18:16;;;;;;;;;;;;;;;33.41;42.21;101028.31;6160544;23;19912;-89
2023/08/22 10:21:05;;;;;;;;;;;;;;;33.53;41.85;101023.78;6159623;23;19912;-86
2023/08/22 10:23:59;;;;;;;;;;;;;;;33.63;41.32;101022.53;6172680;23;19912;-88
2023/08/22 10:27:10;;;;;;;;;;;;;;;33.62;40.64;101018.19;6155398;23;20435;-89
2023/08/22 10:30:15;;;;;;;;;;;;;;;33.68;41.45;101019.13;6154092;23;20248;-89
2023/08/22 10:33:05;;;;;;;;;;;;;;;33.88;40.96;101018.72;6175060;23;19912;-91
2023/08/22 10:36:17;;;;;;;;;;;;;;;33.87;41.55;101019.97;6151882;23;19912;-90
2023/08/22 10:39:36;;;;;;;;;;;;;;;33.97;41.57;101012.28;6154158;23;20252;-89
2023/08/22 10:42:28;;;;;;;;;;;;;;;34.03;41.55;101011.19;6150090;23;19913;-85
2023/08/22 10:45:17;;;;;;;;;;;;;;;34.09;41.50;101005.69;6170662;23;19920;-85
2023/08/22 10:48:09;;;;;;;;;;;;;;;34.06;41.53;101006.63;6151473;23;19915;-86
2023/08/22 10:51:05;;;;;;;;;;;;;;;34.08;41.25;101001.31;6150550;23;19916;-86
2023/08/22 10:53:55;;;;;;;;;;;;;;;34.09;41.48;100997.22;6174621;23;19913;-87
2023/08/22 10:56:47;;;;;;;;;;;;;;;34.17;40.37;100998.47;6153148;23;19912;-87
2023/08/22 10:59:54;;;;;;;;;;;;;;;34.28;39.62;100993.19;6194864;23;20256;-87
2023/08/22 11:02:43;;;;;;;;;;;;;;;34.38;38.88;100991.13;6152956;23;20248;-87
2023/08/22 11:05:36;;;;;;;;;;;;;;;34.45;39.60;100988.75;6152080;23;19916;-87
2023/08/22 11:08:26;;;;;;;;;;;;;;;34.48;39.72;100989.84;6172910;23;19913;-88
2023/08/22 11:11:18;;;;;;;;;;;;;;;34.49;39.55;100983.72;6194576;23;19916;-88
2023/08/22 11:14:10;;;;;;;;;;;;;;;34.47;40.26;100988.28;6152476;23;19916;-88
2023/08/22 11:17:03;;;;;;;;;;;;;;;34.38;40.12;100980.63;6193572;23;19912;-87
2023/08/22 11:19:54;;;;;;;;;;;;;;;34.47;39.61;100979.81;6172124;23;19912;-88
2023/08/22 11:22:47;;;;;;;;;;;;;;;34.51;39.86;100974.75;6195610;23;19912;-88
2023/08/22 11:25:38;;;;;;;;;;;;;;;34.55;38.99;100976.16;6154005;23;19916;-88
2023/08/22 11:28:32;;;;;;;;;;;;;;;34.62;39.22;100975.84;6173917;23;19916;-89
2023/08/22 11:31:32;;;;;;;;;;;;;;;34.66;39.08;100973.63;6152669;23;19912;-86
2023/08/22 11:34:23;;;;;;;;;;;;;;;34.78;37.72;100969.06;6154152;23;19913;-88
2023/08/22 11:37:15;;;;;;;;;;;;;;;34.94;37.58;100974.34;6194999;23;20244;-88
2023/08/22 11:40:07;;;;;;;;;;;;;;;34.95;38.24;100963.81;6152524;23;19916;-87
2023/08/22 11:43:00;;;;;;;;;;;;;;;35.03;37.64;100967.88;6192871;23;19916;-88
2023/08/22 11:45:52;;;;;;;;;;;;;;;35.06;37.90;100964.06;6153718;23;19916;-88
2023/08/22 11:48:40;;;;;;;;;;;;;;;35.09;38.07;100968.78;6173926;23;19912;-88
2023/08/22 11:51:30;;;;;;;;;;;;;;;35.10;37.79;100956.22;6173868;23;19913;-88
2023/08/22 11:54:24;;;;;;;;;;;;;;;35.14;37.24;100962.47;6153586;23;19912;-87
2023/08/22 11:57:13;;;;;;;;;;;;;;;35.38;36.14;100954.03;6173784;23;19912;-90
2023/08/22 12:00:06;;;;;;;;;;;;;;;35.45;35.13;100957.31;6153052;23;19913;-85
2023/08/22 12:03:02;;;;;;;;;;;;;;;35.39;37.07;100962.06;6171358;23;19912;-86
2023/08/22 12:05:51;;;;;;;;;;;;;;;35.46;36.11;100956.00;6154338;23;20268;-88
2023/08/22 12:08:43;;;;;;;;;;;;;;;35.41;37.10;100947.41;6154304;23;19912;-89
2023/08/22 12:11:35;;;;;;;;;;;;;;;35.40;37.31;100955.13;6175906;23;19912;-87
2023/08/22 12:14:27;;;;;;;;;;;;;;;35.38;37.12;100940.69;6153473;23;19912;-87
2023/08/22 12:17:16;;;;;;;;;;;;;;;35.35;37.63;100940.88;6174466;23;20352;-90
2023/08/22 12:20:08;;;;;;;;;;;;;;;35.12;38.73;100933.88;6175293;23;19912;-90
2023/08/22 12:23:00;;;;;;;;;;;;;;;35.30;35.19;100938.69;6154499;23;19916;-88
2023/08/22 12:25:50;;;;;;;;;;;;;;;35.53;34.28;100927.38;6174679;23;19916;-90
2023/08/22 12:28:36;;;;;;;;;;;;;;;35.52;35.90;100936.31;6153748;23;19913;-90
2023/08/22 12:31:27;;;;;;;;;;;;;;;35.43;37.21;100920.22;6156451;23;19912;-91
2023/08/22 12:34:17;;;;;;;;;;;;;;;35.28;38.11;100930.69;6156628;23;19912;-91
2023/08/22 12:37:04;;;;;;;;;;;;;;;35.47;36.16;100915.16;6156370;23;19912;-90
2023/08/22 12:39:53;;;;;;;;;;;;;;;35.62;34.96;100915.19;6156894;23;20339;-89
2023/08/22 12:42:45;;;;;;;;;;;;;;;35.87;33.98;100914.69;6175509;23;19912;-90
2023/08/22 12:45:37;;;;;;;;;;;;;;;35.98;32.90;100914.13;6174645;23;20251;-88
2023/08/22 12:48:26;;;;;;;;;;;;;;;36.15;32.74;100903.91;6155229;23;19912;-89
2023/08/22 12:51:18;;;;;;;;;;;;;;;36.00;35.08;100905.94;6154891;23;20339;-87
2023/08/22 12:54:05;;;;;;;;;;;;;;;35.89;35.85;100897.22;6177543;23;19912;-86
2023/08/22 12:56:55;;;;;;;;;;;;;;;35.77;36.35;100899.03;6177629;23;19912;-90
2023/08/22 12:59:45;;;;;;;;;;;;;;;35.76;36.56;100897.47;6199755;23;19912;-90
2023/08/22 13:02:37;;;;;;;;;;;;;;;35.80;35.39;100894.47;6177413;23;19912;-89
2023/08/22 13:05:29;;;;;;;;;;;;;;;35.83;35.02;100894.28;6198065;23;19916;-89
2023/08/22 13:08:20;;;;;;;;;;;;;;;35.87;34.47;100889.19;6153946;23;19916;-88
2023/08/22 13:11:39;;;;;;;;;;;;;;;36.03;33.34;100888.72;6154185;23;19913;-89
2023/08/22 13:14:26;;;;;;;;;;;;;;;36.33;32.18;100883.88;6173463;23;19916;-89
2023/08/22 13:17:18;;;;;;;;;;;;;;;36.46;32.76;100892.09;6198587;23;19916;-89
2023/08/22 13:20:07;;;;;;;;;;;;;;;36.59;32.04;100886.09;6174014;23;19912;-89
2023/08/22 13:22:59;;;;;;;;;;;;;;;36.51;33.53;100873.59;6171704;23;19912;-87
2023/08/22 13:25:51;;;;;;;;;;;;;;;36.62;31.36;100879.47;6155927;23;20348;-91
2023/08/22 13:28:41;;;;;;;;;;;;;;;36.54;32.24;100867.72;6155175;23;19920;-90
2023/08/22 13:31:32;;;;;;;;;;;;;;;36.45;32.90;100859.34;6158438;23;20340;-88
2023/08/22 13:34:24;;;;;;;;;;;;;;;36.39;34.01;100859.25;6157893;23;19912;-88
2023/08/22 13:37:16;;;;;;;;;;;;;;;36.28;33.82;100850.56;6159653;23;19920;-87
2023/08/22 13:40:07;;;;;;;;;;;;;;;36.26;33.64;100847.47;6156979;23;19912;-88
2023/08/22 13:42:56;;;;;;;;;;;;;;;36.24;34.56;100849.22;6179389;23;19912;-89
2023/08/22 13:45:48;;;;;;;;;;;;;;;36.13;35.40;100837.66;6157279;23;19916;-88
2023/08/22 13:48:40;;;;;;;;;;;;;;;36.32;32.47;100844.72;6173609;23;19912;-89
2023/08/22 13:51:30;;;;;;;;;;;;;;;36.48;32.16;100837.72;6155279;23;19912;-90
2023/08/22 13:54:22;;;;;;;;;;;;;;;36.65;30.79;100838.81;6153450;23;20332;-87
2023/08/22 13:57:14;;;;;;;;;;;;;;;36.76;30.78;100831.25;6153193;23;19913;-89
2023/08/22 14:00:06;;;;;;;;;;;;;;;36.55;32.62;100826.78;6154778;23;19912;-88
2023/08/22 14:02:53;;;;;;;;;;;;;;;36.52;32.54;100829.84;6173987;23;19912;-87
2023/08/22 14:05:43;;;;;;;;;;;;;;;36.53;32.56;100831.38;6156119;23;19916;-89
2023/08/22 14:08:33;;;;;;;;;;;;;;;36.44;32.50;100823.78;6199978;23;19912;-89
2023/08/22 14:11:23;;;;;;;;;;;;;;;36.50;32.21;100826.69;6159558;23;19912;-89
2023/08/22 14:14:12;;;;;;;;;;;;;;;36.61;31.68;100822.00;6155160;23;19916;-86
2023/08/22 14:17:02;;;;;;;;;;;;;;;36.68;31.27;100826.47;6157569;23;19912;-89
2023/08/22 14:19:54;;;;;;;;;;;;;;;36.75;30.93;100820.41;6159033;23;19912;-84
2023/08/22 14:22:42;;;;;;;;;;;;;;;37.02;30.43;100822.06;6154972;23;19942;-85
2023/08/22 14:25:34;;;;;;;;;;;;;;;36.81;31.54;100818.44;6158673;23;20344;-87
2023/08/22 14:28:26;;;;;;;;;;;;;;;36.87;30.97;100822.13;6157106;23;19916;-87
2023/08/22 14:31:18;;;;;;;;;;;;;;;37.09;30.67;100819.59;6151926;23;19920;-86
2023/08/22 14:34:10;;;;;;;;;;;;;;;36.98;30.63;100808.06;6157188;23;19912;-87
2023/08/22 14:37:02;;;;;;;;;;;;;;;36.77;31.67;100815.03;6182177;23;20619;-86
2023/08/22 14:39:54;;;;;;;;;;;;;;;36.91;29.69;100805.69;6175097;23;19912;-87
2023/08/22 14:42:44;;;;;;;;;;;;;;;36.79;31.19;100815.28;6153943;23;19916;-85